Wrangell, AK (99929)

4:36 AM AKDT on August 31, 2015 (GMT -0800)
Wrangell | | Change Station
CLOSE
Current Station
Airport
Location: Wrangell,
Elevation: 43 ft
Nearby Weather Stations

Elev 43 ft 56.48 °N, 132.37 °W | Updated 20 minutes ago

Overcast
Overcast
48 °F
Feels Like 48 °F
N
0
Wind Variable Wind from North

Today
High -- | Low -- °F
--% Chance of Precip.
Yesterday
High -- | Low -- °F
Precip. -- in
5:50 AM 7:47 PM
Waning Gibbous, 95% visible
Pressure 29.43 in
Visibility 10.0 miles
Clouds Overcast 5000 ft
Dew Point 39 °F
Humidity 71%
Rainfall 0.20 in
Snow Depth Not available.
UV 0 out of 12
Pollen Not available.
Air Quality Not available.
Flu Activity Not available.
METAR PAWG 311216Z AUTO 00000KT 10SM OVC050 09/04 A2943 RMK AO1
Pressure 29.43 in
Visibility 10.0 miles
Clouds Overcast 5000 ft
Dew Point 39 °F
Humidity 71%
Rainfall 0.20 in
Snow Depth Not available.
UV 0 out of 12
Pollen Not available.
Air Quality Not available.
Flu Activity Not available.
METAR PAWG 311216Z AUTO 00000KT 10SM OVC050 09/04 A2943 RMK AO1

10-Day Weather Forecast

×

Almanac

Astronomy

Aug. 31, 2015 Rise Set
Actual Time
Civil Twilight
Nautical Twilight
Astronomical Twilight
Moon
Length of Visible Light
Length of Day
Tomorrow will be .
, % of the Moon is Illuminated

Today's Extremes

State Highs State Lows

Community

WunderPhotos

Upload Photos

1,851,222 photos uploaded!

WunderBlogs® & News

Nearby

Air Quality

  Air Quality AQ Index Pollutant
Not available.

Snow Depth

Station Depth Elevation

Earthquake Activity

City Distance Mag. Time & Date
Minimum magnitude displayed is 2.5.

Coastal Water Temperatures

Place Temperature

Stations

Nearby Weather Stations

Station Location Temp. Windchill Dew Point Humidity Wind Precip. Elev Updated Type